Point Hope, AK

01:00 AM AKST del 22 novembre 2014 (GMT -0900)
Red Dog Mine | Change Station
CLOSE
Current Station
Aeroporto
Location: Red Dog Mine,
Altitudine: 968 ft
Stazioni meteo nelle vicinanze

Alt. 968 ft 68.03 °N, 162.90 °W | Updated 14 hours ago

Cloudy
18 °F
Sembra 8 °F
N
9
Vento Variabile Vento da NE
Gusts mph

Oggi
Massima -- | Minima -- °F
--% Possibilità di precip.
Ieri
Massima -- | Minima -- °F
Precip. -- in
12:03 PM 3:34 PM
Luna calante, 0% visible
Pressione 29.36 in
Visibilità 15.0 miglia
Nuvole Alcuni 4000 ft
Nubi sparse 6000 ft
Raffreddamento del vento 8 °F
Punto di rugiada 16 °F
Umidità 92%
Piovosità 0.00 in
Spessore del manto nevoso Non disponibile.
Raggi UV 0 fuori da 12
Polline Non disponibile.
Qualità dell'aria Non disponibile.
Flu Activity Non disponibile.
SPECI PADG 212000Z 05006KT 15SM FEW040 SCT060 M05/M10 A2936

More Conditions Fewer Conditions

Pressione 29.36 in
Visibilità 15.0 miglia
Nuvole Alcuni 4000 ft
Nubi sparse 6000 ft
Raffreddamento del vento 8 °F
Punto di rugiada 16 °F
Umidità 92%
Piovosità 0.00 in
Spessore del manto nevoso Non disponibile.
Raggi UV 0 fuori da 12
Polline Non disponibile.
Qualità dell'aria Non disponibile.
Flu Activity Non disponibile.
SPECI PADG 212000Z 05006KT 15SM FEW040 SCT060 M05/M10 A2936

More Conditions Fewer Conditions

10-Day Weather Forecast

Almanac

Astronomia

Nov. 22, 2014 Alba Tramonto
Ora attuale
Crepuscolo civile
Crepuscolo nautico
Crepuscolo astronomico
Luna
Estensione della luce visibile
Lunghezza del giorno
Tomorrow will be .
, % of the Moon is Illuminated

Gli estremi di oggi

State Highs State Lows

Community

WunderPhotos

Upload Photos

1,772,797 foto caricate!

WunderBlogs® & News

Nearby

Qualità dell'aria

  Qualità dell'aria Indice AQ Inquinante
Not available.

Profondità neve

Stazione Profondità Altitudine

Attività sismica

Città  Distanza Mag. Data & Ora
Minimo Magnitudo Mostrato è 2.5.

Temperature delle acque costiere

Località Temperatura

Stazioni meteo nelle vicinanze